Time;durP1;ratioP1;P1;durP2;ratioP2;P2;SDS_P1;SDS_P2;PMS_P1;PMS_P2;Temp;Humidity;BMP_temperature;BMP_pressure;BME280_temperature;BME280_humidity;BME280_pressure;Samples;Min_cycle;Max_cycle;Signal;HPM_P1;HPM_P2
2024/03/26 00:00:37;;;;;;;;;19.25;19.25;;;;;;;;6488988;39;8952;-55
2024/03/26 00:06:39;;;;;;;;;19.25;18.00;;;;;;;;6489847;31;9079;-55
2024/03/26 00:12:40;;;;;;;;;23.00;19.50;;;;;;;;6489170;46;8888;-51
2024/03/26 00:18:41;;;;;;;;;16.00;12.50;;;;;;;;6489529;46;9000;-53
2024/03/26 00:24:43;;;;;;;;;22.75;20.00;;;;;;;;6490742;39;8980;-54
2024/03/26 00:30:46;;;;;;;;;18.75;16.00;;;;;;;;6489736;39;9004;-55
2024/03/26 00:36:48;;;;;;;;;20.00;17.25;;;;;;;;6489150;39;8992;-55
2024/03/26 00:42:49;;;;;;;;;16.25;15.00;;;;;;;;6489849;39;8909;-55
2024/03/26 00:48:52;;;;;;;;;16.50;14.75;;;;;;;;6489032;31;9031;-55
2024/03/26 00:54:54;;;;;;;;;13.50;13.00;;;;;;;;6487903;39;8995;-54
2024/03/26 01:00:56;;;;;;;;;12.50;12.50;;;;;;;;6489394;46;9051;-55
2024/03/26 01:06:58;;;;;;;;;12.00;12.00;;;;;;;;6489910;39;9015;-54
2024/03/26 01:12:59;;;;;;;;;8.50;6.50;;;;;;;;6490036;31;8951;-53
2024/03/26 01:19:03;;;;;;;;;9.00;9.00;;;;;;;;6489138;31;8936;-53
2024/03/26 01:25:07;;;;;;;;;8.00;8.00;;;;;;;;6489753;31;8885;-56
2024/03/26 01:31:10;;;;;;;;;5.75;5.75;;;;;;;;6488719;39;9552;-53
2024/03/26 01:37:11;;;;;;;;;7.50;4.50;;;;;;;;6488862;39;8897;-55
2024/03/26 01:43:12;;;;;;;;;5.00;5.00;;;;;;;;6488310;46;8880;-53
2024/03/26 01:49:14;;;;;;;;;1.25;1.00;;;;;;;;6488404;39;9060;-57
2024/03/26 01:55:17;;;;;;;;;7.75;7.00;;;;;;;;6489354;39;8996;-55
2024/03/26 02:01:20;;;;;;;;;8.75;8.75;;;;;;;;6489293;31;8944;-51
2024/03/26 02:07:24;;;;;;;;;8.25;8.00;;;;;;;;6490193;31;9002;-56
2024/03/26 02:13:28;;;;;;;;;11.50;10.25;;;;;;;;6488217;39;9357;-55
2024/03/26 02:19:31;;;;;;;;;8.50;8.50;;;;;;;;6489635;39;9643;-54
2024/03/26 02:25:32;;;;;;;;;6.50;6.50;;;;;;;;6488745;39;9600;-56
2024/03/26 02:31:33;;;;;;;;;11.50;8.50;;;;;;;;6488224;39;8869;-53
2024/03/26 02:37:34;;;;;;;;;8.25;7.00;;;;;;;;6487571;39;8984;-55
2024/03/26 02:43:38;;;;;;;;;9.50;7.50;;;;;;;;6487016;39;9011;-55
2024/03/26 02:49:40;;;;;;;;;12.50;10.75;;;;;;;;6489789;39;9008;-56
2024/03/26 02:55:41;;;;;;;;;15.00;11.50;;;;;;;;6489647;46;8955;-56
2024/03/26 03:01:41;;;;;;;;;12.00;11.00;;;;;;;;6489254;31;9067;-54
2024/03/26 03:07:44;;;;;;;;;8.00;8.00;;;;;;;;6489652;46;9047;-54
2024/03/26 03:13:45;;;;;;;;;11.00;9.00;;;;;;;;6489446;46;8981;-54
2024/03/26 03:19:49;;;;;;;;;12.00;11.00;;;;;;;;6489908;46;9164;-55
2024/03/26 03:25:54;;;;;;;;;13.00;11.00;;;;;;;;6489912;31;8943;-51
2024/03/26 03:31:56;;;;;;;;;12.25;9.00;;;;;;;;6490383;39;8931;-53
2024/03/26 03:38:01;;;;;;;;;11.75;11.75;;;;;;;;6490134;39;9436;-52
2024/03/26 03:44:02;;;;;;;;;12.00;12.00;;;;;;;;6488922;46;8917;-54
2024/03/26 03:50:04;;;;;;;;;11.25;11.25;;;;;;;;6490134;31;8943;-56
2024/03/26 03:56:06;;;;;;;;;14.25;12.50;;;;;;;;6490001;31;9024;-53
2024/03/26 04:02:09;;;;;;;;;11.25;10.50;;;;;;;;6463118;46;8969;-58
2024/03/26 04:08:10;;;;;;;;;10.50;10.50;;;;;;;;6539059;31;8940;-59
2024/03/26 04:14:12;;;;;;;;;14.00;14.00;;;;;;;;6491947;39;8936;-58
2024/03/26 04:20:15;;;;;;;;;16.50;15.00;;;;;;;;6492703;31;8873;-58
2024/03/26 04:26:17;;;;;;;;;13.50;12.25;;;;;;;;6493342;39;8877;-57
2024/03/26 04:32:20;;;;;;;;;8.75;8.50;;;;;;;;6491599;46;8901;-58
2024/03/26 04:38:22;;;;;;;;;15.00;14.50;;;;;;;;6492464;46;8818;-58
2024/03/26 04:44:23;;;;;;;;;15.25;14.75;;;;;;;;6491125;46;9044;-58
2024/03/26 04:50:31;;;;;;;;;18.00;14.25;;;;;;;;6492006;46;8841;-60
2024/03/26 04:56:35;;;;;;;;;16.50;16.25;;;;;;;;6492234;46;8983;-58
2024/03/26 05:02:43;;;;;;;;;19.50;17.50;;;;;;;;6491398;46;8970;-59
2024/03/26 05:08:53;;;;;;;;;19.75;17.50;;;;;;;;6492698;39;8842;-59
2024/03/26 05:14:56;;;;;;;;;13.00;13.00;;;;;;;;6491735;46;8902;-58
2024/03/26 05:21:00;;;;;;;;;24.25;18.75;;;;;;;;6491487;39;8913;-59
2024/03/26 05:27:08;;;;;;;;;17.00;16.00;;;;;;;;6491525;39;8882;-59
2024/03/26 05:33:12;;;;;;;;;16.00;13.00;;;;;;;;6489702;31;9002;-59
2024/03/26 05:39:13;;;;;;;;;15.50;13.75;;;;;;;;6491855;39;8972;-59
2024/03/26 05:45:15;;;;;;;;;17.50;15.50;;;;;;;;6490755;46;8917;-60
2024/03/26 05:51:21;;;;;;;;;17.50;14.25;;;;;;;;6491671;39;8864;-58
2024/03/26 05:57:22;;;;;;;;;16.25;16.00;;;;;;;;6490098;39;8922;-60
2024/03/26 06:03:23;;;;;;;;;17.75;17.00;;;;;;;;6490396;47;8987;-58
2024/03/26 06:09:26;;;;;;;;;13.75;13.75;;;;;;;;6489632;46;8919;-59
2024/03/26 06:15:27;;;;;;;;;21.00;19.75;;;;;;;;6489386;31;9043;-59
2024/03/26 06:21:32;;;;;;;;;19.00;18.75;;;;;;;;6490956;46;9066;-60
2024/03/26 06:27:38;;;;;;;;;26.75;26.00;;;;;;;;6490739;39;8927;-60
2024/03/26 06:33:40;;;;;;;;;18.00;15.25;;;;;;;;6491234;31;9034;-61
2024/03/26 06:39:44;;;;;;;;;19.00;17.50;;;;;;;;6489220;46;8982;-61
2024/03/26 06:45:45;;;;;;;;;20.25;18.75;;;;;;;;6489752;31;8928;-59
2024/03/26 06:51:50;;;;;;;;;18.25;16.25;;;;;;;;6491949;31;8964;-60
2024/03/26 06:57:52;;;;;;;;;18.25;18.25;;;;;;;;6490877;31;9058;-59
2024/03/26 07:03:54;;;;;;;;;21.75;16.25;;;;;;;;6490257;46;9087;-59
2024/03/26 07:09:57;;;;;;;;;17.25;17.25;;;;;;;;6487959;39;9152;-60
2024/03/26 07:16:00;;;;;;;;;22.25;17.50;;;;;;;;6487287;39;8914;-58
2024/03/26 07:22:06;;;;;;;;;21.25;21.25;;;;;;;;6490374;31;8902;-60
2024/03/26 07:28:09;;;;;;;;;18.50;17.75;;;;;;;;6490111;39;8984;-62
2024/03/26 07:34:09;;;;;;;;;18.00;16.25;;;;;;;;6489969;39;9202;-61
2024/03/26 07:40:17;;;;;;;;;15.75;13.50;;;;;;;;6489463;31;8914;-58
2024/03/26 07:46:22;;;;;;;;;20.50;20.00;;;;;;;;6490048;31;9032;-59
2024/03/26 07:52:24;;;;;;;;;15.25;14.25;;;;;;;;6489364;39;9605;-62
2024/03/26 07:58:27;;;;;;;;;11.50;11.50;;;;;;;;6490818;39;8914;-58
2024/03/26 08:04:32;;;;;;;;;24.25;23.50;;;;;;;;6488853;39;9093;-59
2024/03/26 08:10:36;;;;;;;;;15.00;15.00;;;;;;;;6486693;31;9667;-59
2024/03/26 08:16:44;;;;;;;;;21.67;21.00;;;;;;;;6487132;46;8976;-63
2024/03/26 08:23:06;;;;;;;;;20.50;19.50;;;;;;;;6488610;31;8928;-60
2024/03/26 08:29:09;;;;;;;;;24.00;20.33;;;;;;;;6490418;31;10244;-58
2024/03/26 08:35:15;;;;;;;;;15.33;15.00;;;;;;;;6488513;39;8970;-60
2024/03/26 08:41:22;;;;;;;;;15.33;12.67;;;;;;;;6487439;31;9027;-60
2024/03/26 08:47:23;;;;;;;;;21.00;20.67;;;;;;;;6487727;31;9027;-59
2024/03/26 08:53:32;;;;;;;;;10.00;9.00;;;;;;;;6487666;39;8959;-62
2024/03/26 08:59:37;;;;;;;;;6.67;6.67;;;;;;;;6483924;39;8930;-59
2024/03/26 09:05:41;;;;;;;;;9.50;9.50;;;;;;;;6486625;39;8940;-60
2024/03/26 09:11:44;;;;;;;;;11.00;11.00;;;;;;;;6489241;31;8916;-60
2024/03/26 09:17:46;;;;;;;;;15.00;15.00;;;;;;;;6488784;31;8921;-62
2024/03/26 09:23:51;;;;;;;;;12.00;11.33;;;;;;;;6487875;46;8943;-61
2024/03/26 09:30:04;;;;;;;;;11.00;11.00;;;;;;;;6488859;39;9260;-59
2024/03/26 09:36:07;;;;;;;;;8.00;8.00;;;;;;;;6489530;46;8914;-59
2024/03/26 09:42:13;;;;;;;;;2.00;2.00;;;;;;;;6490369;39;9020;-61
2024/03/26 09:48:16;;;;;;;;;11.33;10.67;;;;;;;;6488638;39;9001;-61
2024/03/26 09:54:22;;;;;;;;;15.67;14.00;;;;;;;;6490316;46;8968;-60
2024/03/26 10:00:31;;;;;;;;;11.00;11.00;;;;;;;;6492535;39;9675;-62
2024/03/26 10:06:38;;;;;;;;;11.00;10.00;;;;;;;;6494404;31;9062;-59
2024/03/26 10:12:45;;;;;;;;;7.00;6.67;;;;;;;;6494003;46;8961;-61
2024/03/26 10:18:51;;;;;;;;;5.67;5.67;;;;;;;;6494013;39;9037;-62
2024/03/26 10:24:54;;;;;;;;;20.00;20.00;;;;;;;;6494058;46;8926;-61
2024/03/26 10:31:02;;;;;;;;;26.67;25.00;;;;;;;;6491896;39;9006;-62
2024/03/26 10:37:10;;;;;;;;;11.33;9.67;;;;;;;;6492844;31;9561;-61
2024/03/26 10:43:12;;;;;;;;;7.67;7.67;;;;;;;;6478381;39;9639;-60
2024/03/26 10:49:20;;;;;;;;;7.00;7.00;;;;;;;;6493686;39;8930;-60
2024/03/26 10:55:28;;;;;;;;;12.00;11.33;;;;;;;;6491924;46;9048;-61
2024/03/26 11:01:34;;;;;;;;;13.67;13.67;;;;;;;;6494543;39;9035;-59
2024/03/26 11:07:45;;;;;;;;;64.25;52.25;;;;;;;;6493780;31;8933;-61
2024/03/26 11:13:56;;;;;;;;;9.00;9.00;;;;;;;;6491482;39;8911;-60
2024/03/26 11:19:57;;;;;;;;;5.67;5.67;;;;;;;;6492400;39;8902;-60
2024/03/26 11:26:04;;;;;;;;;4.00;4.00;;;;;;;;6492368;39;8910;-64
2024/03/26 11:32:27;;;;;;;;;11.00;10.00;;;;;;;;6491843;39;8927;-64
2024/03/26 11:38:31;;;;;;;;;4.67;4.33;;;;;;;;6488905;46;8990;-61
2024/03/26 11:44:35;;;;;;;;;3.67;3.67;;;;;;;;6489019;39;9068;-62
2024/03/26 11:50:38;;;;;;;;;9.00;9.00;;;;;;;;6491576;31;8915;-60
2024/03/26 11:56:43;;;;;;;;;5.33;5.33;;;;;;;;6488577;46;8930;-62
2024/03/26 12:02:43;;;;;;;;;5.00;5.00;;;;;;;;6489521;39;9097;-61
2024/03/26 12:08:45;;;;;;;;;21.67;18.33;;;;;;;;6490450;39;9041;-60
2024/03/26 12:14:48;;;;;;;;;10.00;6.33;;;;;;;;6490204;39;9047;-62
2024/03/26 12:20:51;;;;;;;;;5.67;5.33;;;;;;;;6489376;39;8974;-61
2024/03/26 12:26:54;;;;;;;;;10.00;7.00;;;;;;;;6310043;31;10000467;-63
2024/03/26 12:33:02;;;;;;;;;65.50;53.00;;;;;;;;6490188;39;8896;-61
2024/03/26 12:39:13;;;;;;;;;14.33;12.00;;;;;;;;6488310;39;9056;-62
2024/03/26 12:45:22;;;;;;;;;25.67;25.67;;;;;;;;6489456;46;9127;-60
2024/03/26 12:51:29;;;;;;;;;5.67;4.67;;;;;;;;6485971;31;9127;-62
2024/03/26 12:57:35;;;;;;;;;5.67;5.67;;;;;;;;6484430;39;8924;-62
2024/03/26 13:03:39;;;;;;;;;7.67;7.67;;;;;;;;6488283;39;9000;-61
2024/03/26 13:09:51;;;;;;;;;5.00;4.00;;;;;;;;6488807;39;8910;-61
2024/03/26 13:15:54;;;;;;;;;7.33;6.67;;;;;;;;6491000;31;8915;-61
2024/03/26 13:22:00;;;;;;;;;34.33;30.33;;;;;;;;6489405;46;8961;-60
2024/03/26 13:28:04;;;;;;;;;5.00;5.00;;;;;;;;6489424;31;9271;-61
2024/03/26 13:34:14;;;;;;;;;21.67;21.67;;;;;;;;6489768;46;8931;-64
2024/03/26 13:40:21;;;;;;;;;35.67;32.67;;;;;;;;6490932;39;9145;-65
2024/03/26 13:46:28;;;;;;;;;36.67;33.00;;;;;;;;6490311;39;8954;-61
2024/03/26 13:52:33;;;;;;;;;39.00;36.33;;;;;;;;6491464;31;8930;-62
2024/03/26 13:58:38;;;;;;;;;3.67;3.33;;;;;;;;6489382;46;8929;-62
2024/03/26 14:04:42;;;;;;;;;8.00;7.33;;;;;;;;6488595;47;8985;-63
2024/03/26 14:10:44;;;;;;;;;6.67;6.67;;;;;;;;6488232;31;9061;-62
2024/03/26 14:16:48;;;;;;;;;7.00;7.00;;;;;;;;6490206;39;8906;-64
2024/03/26 14:22:53;;;;;;;;;16.33;16.00;;;;;;;;6491296;39;8996;-60
2024/03/26 14:29:00;;;;;;;;;11.33;8.00;;;;;;;;6490495;46;8960;-60
2024/03/26 14:35:06;;;;;;;;;77.50;60.00;;;;;;;;6490569;31;9628;-61
2024/03/26 14:41:09;;;;;;;;;11.67;10.00;;;;;;;;6491692;39;8890;-61
2024/03/26 14:47:13;;;;;;;;;6.00;6.00;;;;;;;;6492832;39;9030;-60
2024/03/26 14:53:16;;;;;;;;;21.33;21.00;;;;;;;;6492792;39;8850;-62
2024/03/26 14:59:23;;;;;;;;;5.33;5.33;;;;;;;;6492256;39;9545;-61
2024/03/26 15:05:27;;;;;;;;;15.00;14.00;;;;;;;;6491128;31;8985;-61
2024/03/26 15:11:35;;;;;;;;;11.00;9.00;;;;;;;;6490341;46;8878;-60
2024/03/26 15:17:40;;;;;;;;;7.33;7.33;;;;;;;;6491224;46;8878;-59
2024/03/26 15:23:47;;;;;;;;;8.00;8.00;;;;;;;;6491539;31;8874;-60
2024/03/26 15:36:09;;;;;;;;;8.33;6.67;;;;;;;;6491423;39;9021;-59
2024/03/26 15:42:12;;;;;;;;;5.67;5.33;;;;;;;;6491239;46;8945;-61
2024/03/26 15:48:15;;;;;;;;;21.00;20.00;;;;;;;;6491690;46;9009;-59
2024/03/26 15:54:21;;;;;;;;;10.33;10.33;;;;;;;;6491402;39;9000;-61
2024/03/26 16:00:26;;;;;;;;;4.33;4.33;;;;;;;;6491087;46;8972;-60
2024/03/26 16:06:30;;;;;;;;;8.33;8.33;;;;;;;;6491844;39;9572;-58
2024/03/26 16:12:33;;;;;;;;;9.67;7.67;;;;;;;;6491385;46;8942;-61
2024/03/26 16:18:39;;;;;;;;;8.67;8.67;;;;;;;;6491367;46;8872;-61
2024/03/26 16:24:42;;;;;;;;;8.33;8.33;;;;;;;;6491303;39;9681;-59
2024/03/26 16:30:46;;;;;;;;;13.33;10.33;;;;;;;;6490294;39;8919;-59
2024/03/26 16:36:52;;;;;;;;;17.33;14.00;;;;;;;;6490937;46;8868;-60
2024/03/26 16:42:59;;;;;;;;;12.00;10.00;;;;;;;;6490528;39;8932;-59
2024/03/26 16:49:03;;;;;;;;;14.67;10.33;;;;;;;;6491437;39;8909;-58
2024/03/26 16:55:13;;;;;;;;;10.00;10.00;;;;;;;;6491162;39;9929;-59
2024/03/26 17:01:18;;;;;;;;;12.33;12.33;;;;;;;;6491662;39;9068;-61
2024/03/26 17:07:21;;;;;;;;;14.33;12.33;;;;;;;;6490602;39;8913;-61
2024/03/26 17:13:24;;;;;;;;;41.50;36.50;;;;;;;;6490123;46;8875;-59
2024/03/26 17:19:28;;;;;;;;;20.00;17.75;;;;;;;;6491030;39;9756;-61
2024/03/26 17:25:33;;;;;;;;;15.00;15.00;;;;;;;;6490056;39;9000;-61
2024/03/26 17:31:35;;;;;;;;;14.67;14.67;;;;;;;;6491303;39;8895;-60
2024/03/26 17:37:36;;;;;;;;;19.75;19.50;;;;;;;;6491264;39;8994;-61
2024/03/26 17:43:45;;;;;;;;;15.50;13.00;;;;;;;;6489982;46;8957;-60
2024/03/26 17:49:50;;;;;;;;;19.00;17.50;;;;;;;;6489928;39;9561;-60
2024/03/26 17:55:52;;;;;;;;;27.25;22.75;;;;;;;;6490677;31;9543;-59
2024/03/26 18:01:54;;;;;;;;;26.00;23.25;;;;;;;;6489712;47;8958;-60
2024/03/26 18:07:57;;;;;;;;;31.00;28.75;;;;;;;;6490797;39;8941;-60
2024/03/26 18:14:00;;;;;;;;;33.75;30.50;;;;;;;;6490317;39;8944;-60
2024/03/26 18:20:05;;;;;;;;;32.25;28.25;;;;;;;;6492723;31;8973;-60
2024/03/26 18:26:15;;;;;;;;;35.00;33.75;;;;;;;;6492617;39;8878;-59
2024/03/26 18:32:19;;;;;;;;;24.75;22.75;;;;;;;;6492314;39;8985;-60
2024/03/26 18:38:23;;;;;;;;;21.50;21.00;;;;;;;;6491469;39;8906;-59
2024/03/26 18:44:25;;;;;;;;;16.00;13.25;;;;;;;;6491434;39;8902;-61
2024/03/26 18:50:28;;;;;;;;;14.75;12.50;;;;;;;;6492594;39;8874;-58
2024/03/26 18:56:31;;;;;;;;;15.00;13.25;;;;;;;;6491395;31;8893;-60
2024/03/26 19:02:35;;;;;;;;;15.75;13.50;;;;;;;;6492606;39;8933;-60
2024/03/26 19:08:39;;;;;;;;;12.00;10.25;;;;;;;;6491568;31;9058;-59
2024/03/26 19:14:42;;;;;;;;;15.00;13.75;;;;;;;;6491519;46;8886;-60
2024/03/26 19:21:08;;;;;;;;;12.00;11.67;;;;;;;;6491753;39;8926;-63
2024/03/26 19:27:09;;;;;;;;;7.67;7.67;;;;;;;;6490719;46;8906;-60
2024/03/26 19:33:12;;;;;;;;;7.00;7.00;;;;;;;;6491928;39;8973;-60
2024/03/26 19:39:15;;;;;;;;;8.25;8.00;;;;;;;;6491362;39;8866;-59
2024/03/26 19:45:19;;;;;;;;;7.00;7.00;;;;;;;;6490584;39;8993;-58
2024/03/26 19:51:24;;;;;;;;;12.00;11.00;;;;;;;;6490955;46;9005;-60
2024/03/26 19:57:27;;;;;;;;;8.50;8.50;;;;;;;;6491537;39;8882;-59
2024/03/26 20:03:37;;;;;;;;;22.50;21.00;;;;;;;;6491400;39;8946;-59
2024/03/26 20:09:38;;;;;;;;;15.50;11.75;;;;;;;;6490873;46;9124;-59
2024/03/26 20:15:50;;;;;;;;;10.50;10.50;;;;;;;;6491937;31;8897;-60
2024/03/26 20:21:53;;;;;;;;;14.25;14.25;;;;;;;;6491162;39;9012;-59
2024/03/26 20:27:56;;;;;;;;;10.75;8.00;;;;;;;;6490989;31;8842;-59
2024/03/26 20:33:59;;;;;;;;;9.25;9.25;;;;;;;;6492075;39;8904;-60
2024/03/26 20:40:03;;;;;;;;;12.50;12.50;;;;;;;;6491158;46;9013;-58
2024/03/26 20:46:06;;;;;;;;;13.00;11.00;;;;;;;;6491568;39;9073;-61
2024/03/26 20:52:08;;;;;;;;;13.00;11.50;;;;;;;;6490785;46;8874;-59
2024/03/26 20:58:15;;;;;;;;;10.50;9.25;;;;;;;;6490563;39;8894;-58
2024/03/26 21:04:17;;;;;;;;;12.50;11.00;;;;;;;;6490812;39;8973;-60
2024/03/26 21:10:20;;;;;;;;;12.50;11.50;;;;;;;;6490471;39;8870;-59
2024/03/26 21:16:24;;;;;;;;;11.00;11.00;;;;;;;;6491200;39;8906;-58
2024/03/26 21:22:27;;;;;;;;;9.50;8.00;;;;;;;;6491603;31;9056;-60
2024/03/26 21:28:29;;;;;;;;;8.00;8.00;;;;;;;;6490835;39;8956;-60
2024/03/26 21:34:30;;;;;;;;;15.00;12.25;;;;;;;;6489487;46;8878;-59
2024/03/26 21:40:32;;;;;;;;;14.50;11.00;;;;;;;;6490126;39;8957;-59
2024/03/26 21:46:35;;;;;;;;;16.25;15.25;;;;;;;;6490821;39;8908;-59
2024/03/26 21:52:42;;;;;;;;;15.00;15.00;;;;;;;;6489799;39;8946;-59
2024/03/26 21:58:45;;;;;;;;;17.75;13.75;;;;;;;;6489891;39;8948;-61
2024/03/26 22:04:50;;;;;;;;;13.50;12.50;;;;;;;;6489705;31;8966;-60
2024/03/26 22:10:53;;;;;;;;;20.50;17.50;;;;;;;;6489861;39;8878;-59
2024/03/26 22:16:55;;;;;;;;;14.25;14.00;;;;;;;;6490170;39;8842;-60
2024/03/26 22:22:57;;;;;;;;;16.50;15.50;;;;;;;;6489513;47;9036;-60
2024/03/26 22:29:01;;;;;;;;;17.50;15.75;;;;;;;;6490088;39;8936;-60
2024/03/26 22:35:09;;;;;;;;;16.75;16.25;;;;;;;;6488946;31;8874;-60
2024/03/26 22:41:11;;;;;;;;;20.25;16.25;;;;;;;;6489618;39;8866;-59
2024/03/26 22:47:13;;;;;;;;;15.25;13.00;;;;;;;;6490072;47;8989;-59
2024/03/26 22:53:16;;;;;;;;;7.25;5.50;;;;;;;;6489495;39;8894;-58
2024/03/26 22:59:18;;;;;;;;;14.00;13.25;;;;;;;;6489963;39;9073;-59
2024/03/26 23:05:22;;;;;;;;;15.50;15.50;;;;;;;;6491732;39;9102;-58
2024/03/26 23:11:24;;;;;;;;;15.50;14.50;;;;;;;;6490978;39;9063;-58
2024/03/26 23:17:29;;;;;;;;;16.00;16.00;;;;;;;;6492065;39;8865;-61
2024/03/26 23:23:31;;;;;;;;;10.00;10.00;;;;;;;;6491001;39;8913;-61
2024/03/26 23:29:32;;;;;;;;;14.50;12.00;;;;;;;;6490860;39;8881;-57
2024/03/26 23:35:36;;;;;;;;;13.00;12.25;;;;;;;;6492664;31;8901;-59
2024/03/26 23:41:44;;;;;;;;;16.50;11.75;;;;;;;;6490897;46;8914;-59
2024/03/26 23:47:47;;;;;;;;;12.00;12.00;;;;;;;;6491701;39;8906;-61
2024/03/26 23:53:58;;;;;;;;;12.75;12.75;;;;;;;;6491165;39;9593;-60
